createdAt,value
2023-05-18T00:01:44.709Z,16.94
2023-05-18T00:04:12.470Z,16.86
2023-05-18T00:06:40.022Z,16.90
2023-05-18T00:09:07.533Z,16.76
2023-05-18T00:11:39.716Z,16.68
2023-05-18T00:14:08.411Z,16.67
2023-05-18T00:16:36.210Z,16.60
2023-05-18T00:19:05.354Z,16.65
2023-05-18T00:21:33.737Z,16.65
2023-05-18T00:24:01.962Z,16.51
2023-05-18T00:26:30.066Z,16.42
2023-05-18T00:28:57.525Z,16.36
2023-05-18T00:31:24.975Z,16.32
2023-05-18T00:33:52.363Z,16.21
2023-05-18T00:36:19.731Z,16.34
2023-05-18T00:38:47.114Z,16.33
2023-05-18T00:41:14.535Z,16.27
2023-05-18T00:43:42.000Z,16.10
2023-05-18T00:46:09.652Z,16.04
2023-05-18T00:48:37.081Z,16.02
2023-05-18T00:51:05.640Z,15.91
2023-05-18T00:53:33.917Z,15.93
2023-05-18T00:56:01.317Z,15.75
2023-05-18T00:58:29.167Z,15.71
2023-05-18T01:00:57.362Z,15.87
2023-05-18T01:03:26.450Z,15.81
2023-05-18T01:05:58.218Z,15.96
2023-05-18T01:08:28.295Z,15.99
2023-05-18T01:11:42.169Z,16.09
2023-05-18T01:14:30.659Z,16.05
2023-05-18T01:17:29.358Z,15.94
2023-05-18T01:20:29.450Z,16.02
2023-05-18T01:23:01.957Z,15.97
2023-05-18T01:25:54.474Z,15.90
2023-05-18T01:28:28.686Z,15.82
2023-05-18T01:30:56.767Z,15.83
2023-05-18T01:33:27.213Z,15.76
2023-05-18T01:35:54.716Z,15.63
2023-05-18T01:38:27.935Z,15.77
2023-05-18T01:41:24.389Z,15.66
2023-05-18T01:44:12.689Z,15.65
2023-05-18T01:47:14.027Z,15.52
2023-05-18T01:50:09.171Z,15.56
2023-05-18T01:52:42.985Z,15.58
2023-05-18T01:55:14.281Z,15.55
2023-05-18T01:57:45.737Z,15.62
2023-05-18T02:00:13.523Z,15.61
2023-05-18T02:02:41.703Z,15.57
2023-05-18T02:05:12.530Z,15.65
2023-05-18T02:07:40.983Z,15.64
2023-05-18T02:10:09.011Z,15.61
2023-05-18T02:12:36.642Z,15.52
2023-05-18T02:15:05.744Z,15.53
2023-05-18T02:17:34.558Z,15.32
2023-05-18T02:20:02.168Z,15.28
2023-05-18T02:22:29.961Z,15.42
2023-05-18T02:24:57.373Z,15.35
2023-05-18T02:27:24.799Z,15.33
2023-05-18T02:29:52.280Z,15.47
2023-05-18T02:32:19.958Z,15.48
2023-05-18T02:34:50.304Z,15.60
2023-05-18T02:37:17.669Z,15.61
2023-05-18T02:39:45.114Z,15.79
2023-05-18T02:42:13.326Z,15.73
2023-05-18T02:44:42.216Z,15.65
2023-05-18T02:47:09.737Z,15.75
2023-05-18T02:49:37.088Z,15.72
2023-05-18T02:52:04.766Z,15.64
2023-05-18T02:54:32.894Z,15.69
2023-05-18T02:57:00.516Z,15.76
2023-05-18T02:59:27.899Z,15.75
2023-05-18T03:01:55.384Z,15.75
2023-05-18T03:04:25.937Z,15.78
2023-05-18T03:06:53.666Z,15.77
2023-05-18T03:09:21.037Z,15.66
2023-05-18T03:11:48.606Z,15.61
2023-05-18T03:14:16.219Z,15.76
2023-05-18T03:16:43.663Z,15.76
2023-05-18T03:19:14.375Z,15.79
2023-05-18T03:21:42.661Z,15.83
2023-05-18T03:24:10.092Z,15.78
2023-05-18T03:26:39.897Z,15.91
2023-05-18T03:29:07.405Z,15.82
2023-05-18T03:31:35.205Z,15.87
2023-05-18T03:34:02.676Z,16.02
2023-05-18T03:36:30.268Z,16.11
2023-05-18T03:38:57.639Z,16.10
2023-05-18T03:41:25.147Z,16.30
2023-05-18T03:43:52.584Z,16.30
2023-05-18T03:46:20.710Z,16.37
2023-05-18T03:48:48.409Z,16.37
2023-05-18T03:51:16.257Z,16.47
2023-05-18T03:53:44.452Z,16.59
2023-05-18T03:56:13.426Z,16.73
2023-05-18T03:58:42.520Z,16.80
2023-05-18T04:01:10.840Z,16.91
2023-05-18T04:03:38.455Z,16.88
2023-05-18T04:06:06.658Z,16.98
2023-05-18T04:08:34.598Z,17.07
2023-05-18T04:11:02.184Z,17.14
2023-05-18T04:13:29.805Z,17.30
2023-05-18T04:18:37.561Z,17.38
2023-05-18T04:21:06.588Z,17.52
2023-05-18T04:23:39.423Z,17.64
2023-05-18T04:26:07.138Z,17.61
2023-05-18T04:28:35.078Z,17.78
2023-05-18T04:31:02.826Z,17.85
2023-05-18T04:33:30.573Z,17.85
2023-05-18T04:35:59.061Z,18.03
2023-05-18T04:38:26.541Z,18.00
2023-05-18T04:40:57.617Z,18.04
2023-05-18T04:43:25.153Z,18.22
2023-05-18T04:45:52.803Z,18.31
2023-05-18T04:48:20.394Z,18.43
2023-05-18T04:50:47.931Z,18.54
2023-05-18T04:53:18.265Z,18.60
2023-05-18T04:55:46.587Z,18.74
2023-05-18T04:58:15.226Z,18.81
2023-05-18T05:00:43.251Z,18.88
2023-05-18T05:03:10.855Z,19.03
2023-05-18T05:05:38.451Z,19.02
2023-05-18T05:08:06.735Z,19.18
2023-05-18T05:10:34.475Z,19.34
2023-05-18T05:13:01.914Z,19.44
2023-05-18T05:15:31.045Z,19.62
2023-05-18T05:17:59.196Z,19.72
2023-05-18T05:20:26.732Z,19.91
2023-05-18T05:22:54.240Z,20.04
2023-05-18T05:25:21.750Z,20.26
2023-05-18T05:27:49.129Z,20.36
2023-05-18T05:30:16.557Z,20.47
2023-05-18T05:32:44.265Z,20.48
2023-05-18T05:35:11.725Z,20.69
2023-05-18T05:37:39.409Z,20.81
2023-05-18T05:40:07.838Z,20.92
2023-05-18T05:42:35.673Z,21.06
2023-05-18T05:45:03.603Z,21.10
2023-05-18T05:47:33.256Z,21.13
2023-05-18T05:50:00.775Z,21.32
2023-05-18T05:52:29.185Z,21.47
2023-05-18T05:54:56.715Z,21.55
2023-05-18T05:57:24.198Z,21.74
2023-05-18T05:59:51.706Z,21.92
2023-05-18T06:02:19.279Z,22.12
2023-05-18T06:04:46.834Z,22.28
2023-05-18T06:07:14.268Z,22.41
2023-05-18T06:09:42.014Z,22.59
2023-05-18T06:12:09.758Z,22.72
2023-05-18T06:17:04.859Z,22.99
2023-05-18T06:19:32.316Z,23.13
2023-05-18T06:21:59.762Z,23.30
2023-05-18T06:24:27.179Z,23.49
2023-05-18T06:26:54.594Z,23.62
2023-05-18T06:29:22.026Z,23.72
2023-05-18T06:31:49.609Z,23.89
2023-05-18T06:34:17.373Z,24.05
2023-05-18T06:36:44.778Z,24.15
2023-05-18T06:39:12.194Z,24.34
2023-05-18T06:41:39.663Z,24.47
2023-05-18T06:44:07.180Z,24.54
2023-05-18T06:46:34.723Z,24.70
2023-05-18T06:49:02.333Z,24.79
2023-05-18T06:51:30.023Z,24.88
2023-05-18T06:53:57.841Z,24.97
2023-05-18T06:56:25.892Z,25.17
2023-05-18T06:58:53.304Z,25.27
2023-05-18T07:01:20.851Z,25.29
2023-05-18T07:03:48.366Z,25.45
2023-05-18T07:06:15.867Z,25.52
2023-05-18T07:08:44.791Z,25.69
2023-05-18T07:11:12.234Z,25.73
2023-05-18T07:13:40.083Z,25.86
2023-05-18T07:16:07.479Z,25.79
2023-05-18T07:18:35.326Z,25.99
2023-05-18T07:21:02.834Z,26.24
2023-05-18T07:23:30.413Z,26.35
2023-05-18T07:25:57.845Z,26.49
2023-05-18T07:28:25.326Z,26.59
2023-05-18T07:30:52.706Z,26.54
2023-05-18T07:33:20.144Z,26.50
2023-05-18T07:35:47.592Z,26.68
2023-05-18T07:38:14.982Z,26.91
2023-05-18T07:40:42.617Z,27.08
2023-05-18T07:43:10.602Z,27.05
2023-05-18T07:45:38.155Z,27.06
2023-05-18T07:48:07.961Z,27.02
2023-05-18T07:50:37.128Z,27.16
2023-05-18T07:53:04.560Z,27.15
2023-05-18T07:55:32.513Z,27.21
2023-05-18T07:58:03.031Z,27.41
2023-05-18T08:00:31.282Z,27.56
2023-05-18T08:03:00.913Z,27.62
2023-05-18T08:05:28.715Z,27.75
2023-05-18T08:07:56.559Z,27.57
2023-05-18T08:10:24.329Z,27.74
2023-05-18T08:12:52.893Z,27.72
2023-05-18T08:15:20.288Z,27.71
2023-05-18T08:17:47.789Z,27.66
2023-05-18T08:20:15.273Z,27.89
2023-05-18T08:22:42.709Z,27.90
2023-05-18T08:25:10.390Z,28.00
2023-05-18T08:27:37.902Z,27.93
2023-05-18T08:30:05.881Z,28.09
2023-05-18T08:32:37.039Z,27.97
2023-05-18T08:35:08.605Z,28.20
2023-05-18T08:37:37.428Z,28.30
2023-05-18T08:40:07.904Z,28.51
2023-05-18T08:43:00.321Z,28.31
2023-05-18T08:45:36.271Z,28.15
2023-05-18T08:48:05.936Z,28.13
2023-05-18T08:50:34.938Z,28.30
2023-05-18T08:53:06.273Z,28.50
2023-05-18T08:55:37.519Z,28.67
2023-05-18T08:58:09.352Z,28.81
2023-05-18T09:00:37.391Z,28.57
2023-05-18T09:03:06.405Z,29.06
2023-05-18T09:05:34.811Z,29.09
2023-05-18T09:08:03.735Z,29.47
2023-05-18T09:10:33.785Z,29.29
2023-05-18T09:13:05.462Z,29.22
2023-05-18T09:15:35.531Z,29.33
2023-05-18T09:18:03.989Z,29.70
2023-05-18T09:20:31.589Z,29.57
2023-05-18T09:23:00.235Z,29.50
2023-05-18T09:25:30.633Z,29.63
2023-05-18T09:27:58.196Z,29.74
2023-05-18T09:30:25.768Z,29.38
2023-05-18T09:32:53.495Z,29.60
2023-05-18T09:35:21.997Z,29.69
2023-05-18T09:37:50.060Z,29.74
2023-05-18T09:40:19.567Z,29.93
2023-05-18T09:42:48.690Z,29.89
2023-05-18T09:45:24.272Z,29.46
2023-05-18T09:47:52.926Z,29.80
2023-05-18T09:50:24.519Z,30.24
2023-05-18T09:52:52.075Z,29.92
2023-05-18T09:55:20.927Z,29.49
2023-05-18T09:57:50.481Z,29.38
2023-05-18T10:00:20.849Z,29.89
2023-05-18T10:02:52.671Z,30.19
2023-05-18T10:05:27.996Z,30.38
2023-05-18T10:07:56.112Z,30.53
2023-05-18T10:10:26.306Z,30.53
2023-05-18T10:12:56.060Z,31.06
2023-05-18T10:15:24.649Z,31.07
2023-05-18T10:17:56.398Z,31.10
2023-05-18T10:20:26.099Z,30.91
2023-05-18T10:22:55.966Z,31.16
2023-05-18T10:25:26.535Z,31.41
2023-05-18T10:28:07.985Z,31.54
2023-05-18T10:30:36.292Z,31.36
2023-05-18T10:33:11.293Z,31.45
2023-05-18T10:35:46.529Z,31.54
2023-05-18T10:38:25.211Z,31.67
2023-05-18T10:40:55.759Z,31.67
2023-05-18T10:43:28.426Z,31.47
2023-05-18T10:45:58.739Z,31.67
2023-05-18T10:48:28.020Z,31.83
2023-05-18T10:50:57.603Z,31.97
2023-05-18T10:53:29.538Z,31.77
2023-05-18T10:55:57.139Z,31.86
2023-05-18T10:58:27.172Z,31.86
2023-05-18T11:00:57.462Z,32.21
2023-05-18T11:03:27.284Z,32.16
2023-05-18T11:06:12.322Z,32.42
2023-05-18T11:08:50.955Z,32.05
2023-05-18T11:11:23.554Z,32.09
2023-05-18T11:13:54.427Z,31.95
2023-05-18T11:16:34.750Z,31.87
2023-05-18T11:19:07.376Z,32.08
2023-05-18T11:21:41.547Z,31.70
2023-05-18T11:24:31.379Z,31.57
2023-05-18T11:27:03.685Z,31.76
2023-05-18T11:29:36.104Z,31.45
2023-05-18T11:32:05.054Z,31.34
2023-05-18T11:34:46.526Z,31.64
2023-05-18T11:37:38.341Z,32.03
2023-05-18T11:40:11.343Z,32.02
2023-05-18T11:42:39.522Z,32.14
2023-05-18T11:45:08.284Z,31.81
2023-05-18T11:47:37.087Z,31.65
2023-05-18T11:50:08.542Z,31.75
2023-05-18T11:52:47.489Z,31.74
2023-05-18T11:55:17.130Z,31.06
2023-05-18T11:57:47.725Z,30.71
2023-05-18T12:00:16.415Z,30.65
2023-05-18T12:02:45.966Z,31.23
2023-05-18T12:05:14.907Z,31.31
2023-05-18T12:07:44.991Z,30.75
2023-05-18T12:10:17.712Z,30.42
2023-05-18T12:12:49.384Z,30.17
2023-05-18T12:15:17.588Z,30.70
2023-05-18T12:17:49.808Z,30.58
2023-05-18T12:20:22.712Z,30.20
2023-05-18T12:22:54.766Z,29.78
2023-05-18T12:25:24.291Z,30.10
2023-05-18T12:27:53.282Z,30.60
2023-05-18T12:30:34.476Z,31.34
2023-05-18T12:33:02.722Z,31.68
2023-05-18T12:35:31.386Z,31.79
2023-05-18T12:38:00.899Z,32.50
2023-05-18T12:40:46.657Z,32.78
2023-05-18T12:43:14.371Z,32.87
2023-05-18T12:45:44.687Z,32.93
2023-05-18T12:48:13.287Z,32.90
2023-05-18T12:50:53.290Z,33.06
2023-05-18T12:53:20.996Z,32.93
2023-05-18T12:55:59.716Z,32.96
2023-05-18T12:58:27.382Z,33.24
2023-05-18T13:00:54.992Z,33.44
2023-05-18T13:03:22.919Z,33.71
2023-05-18T13:06:07.488Z,33.79
2023-05-18T13:08:36.797Z,34.28
2023-05-18T13:11:13.519Z,34.27
2023-05-18T13:14:04.262Z,34.43
2023-05-18T13:16:34.189Z,34.52
2023-05-18T13:19:04.455Z,33.12
2023-05-18T13:21:32.593Z,32.59
2023-05-18T13:24:03.595Z,31.94
2023-05-18T13:26:31.542Z,31.89
2023-05-18T13:29:00.321Z,31.26
2023-05-18T13:31:29.838Z,30.64
2023-05-18T13:33:57.873Z,30.43
2023-05-18T13:36:26.165Z,30.07
2023-05-18T13:38:54.252Z,30.59
2023-05-18T13:41:21.710Z,30.99
2023-05-18T13:43:49.616Z,31.85
2023-05-18T13:46:18.841Z,32.57
2023-05-18T13:48:46.376Z,32.96
2023-05-18T13:51:14.217Z,33.17
2023-05-18T13:53:41.830Z,33.54
2023-05-18T13:56:09.393Z,33.25
2023-05-18T13:58:36.857Z,32.63
2023-05-18T14:01:08.069Z,31.70
2023-05-18T14:03:36.811Z,31.52
2023-05-18T14:06:04.595Z,31.29
2023-05-18T14:08:32.223Z,31.14
2023-05-18T14:10:59.795Z,31.04
2023-05-18T14:13:27.289Z,30.58
2023-05-18T14:15:54.894Z,30.48
2023-05-18T14:18:22.486Z,30.01
2023-05-18T14:20:49.896Z,29.79
2023-05-18T14:23:17.263Z,29.49
2023-05-18T14:25:46.000Z,29.28
2023-05-18T14:28:13.666Z,29.18
2023-05-18T14:30:41.627Z,28.96
2023-05-18T14:33:09.223Z,28.97
2023-05-18T14:35:36.811Z,28.82
2023-05-18T14:38:05.865Z,28.64
2023-05-18T14:40:33.936Z,28.64
2023-05-18T14:43:01.307Z,28.62
2023-05-18T14:45:29.321Z,28.48
2023-05-18T14:47:56.856Z,28.32
2023-05-18T14:50:24.476Z,28.33
2023-05-18T14:52:52.388Z,28.22
2023-05-18T14:55:19.927Z,28.04
2023-05-18T14:57:47.448Z,28.02
2023-05-18T15:00:15.309Z,27.96
2023-05-18T15:02:43.488Z,27.79
2023-05-18T15:05:11.514Z,27.68
2023-05-18T15:07:38.980Z,27.70
2023-05-18T15:10:07.040Z,27.56
2023-05-18T15:12:34.973Z,27.56
2023-05-18T15:15:02.643Z,27.57
2023-05-18T15:17:30.519Z,27.37
2023-05-18T15:19:57.972Z,27.40
2023-05-18T15:22:25.449Z,27.37
2023-05-18T15:24:52.936Z,27.36
2023-05-18T15:27:20.350Z,27.27
2023-05-18T15:29:48.596Z,27.17
2023-05-18T15:32:16.330Z,27.11
2023-05-18T15:34:43.831Z,27.17
2023-05-18T15:37:11.248Z,27.04
2023-05-18T15:39:38.902Z,27.01
2023-05-18T15:42:06.884Z,27.07
2023-05-18T15:44:34.758Z,27.03
2023-05-18T15:47:02.224Z,27.01
2023-05-18T15:49:30.138Z,26.90
2023-05-18T15:51:57.739Z,26.77
2023-05-18T15:54:25.200Z,26.85
2023-05-18T15:56:52.850Z,26.88
2023-05-18T15:59:20.404Z,26.93
2023-05-18T16:01:48.830Z,26.96
2023-05-18T16:04:16.344Z,26.95
2023-05-18T16:06:43.852Z,26.88
2023-05-18T16:09:11.344Z,26.81
2023-05-18T16:11:38.799Z,26.90
2023-05-18T16:14:06.837Z,26.85
2023-05-18T16:16:34.395Z,26.85
2023-05-18T16:19:02.481Z,26.74
2023-05-18T16:21:30.286Z,26.57
2023-05-18T16:23:57.697Z,26.61
2023-05-18T16:26:26.237Z,26.52
2023-05-18T16:28:53.891Z,26.47
2023-05-18T16:31:21.472Z,26.40
2023-05-18T16:33:49.336Z,26.39
2023-05-18T16:36:17.198Z,26.25
2023-05-18T16:38:44.735Z,26.12
2023-05-18T16:41:12.825Z,26.13
2023-05-18T16:43:40.325Z,26.08
2023-05-18T16:46:07.800Z,26.03
2023-05-18T16:48:35.805Z,25.82
2023-05-18T16:51:06.872Z,25.71
2023-05-18T16:53:34.765Z,25.65
2023-05-18T16:56:03.511Z,25.63
2023-05-18T16:58:31.276Z,25.42
2023-05-18T17:00:58.864Z,25.37
2023-05-18T17:03:27.652Z,25.28
2023-05-18T17:05:55.182Z,25.25
2023-05-18T17:08:23.506Z,25.12
2023-05-18T17:10:50.975Z,25.04
2023-05-18T17:13:18.472Z,24.93
2023-05-18T17:15:46.005Z,24.88
2023-05-18T17:18:13.844Z,24.77
2023-05-18T17:20:41.401Z,24.74
2023-05-18T17:23:09.025Z,24.69
2023-05-18T17:25:36.916Z,24.68
2023-05-18T17:28:04.644Z,24.59
2023-05-18T17:30:32.425Z,24.52
2023-05-18T17:33:00.206Z,24.47
2023-05-18T17:35:27.741Z,24.46
2023-05-18T17:37:55.968Z,24.38
2023-05-18T17:40:23.828Z,24.38
2023-05-18T17:42:51.322Z,24.28
2023-05-18T17:45:18.961Z,24.26
2023-05-18T17:47:46.559Z,24.31
2023-05-18T17:50:14.228Z,24.23
2023-05-18T17:52:41.830Z,24.17
2023-05-18T17:55:10.462Z,24.16
2023-05-18T17:57:46.725Z,24.22
2023-05-18T18:00:14.860Z,24.17
2023-05-18T18:02:42.678Z,24.17
2023-05-18T18:05:10.311Z,24.10
2023-05-18T18:07:39.386Z,24.01
2023-05-18T18:10:07.678Z,24.02
2023-05-18T18:12:36.138Z,23.95
2023-05-18T18:15:03.998Z,23.93
2023-05-18T18:17:32.118Z,23.87
2023-05-18T18:19:59.542Z,23.79
2023-05-18T18:22:29.150Z,23.89
2023-05-18T18:24:56.788Z,23.71
2023-05-18T18:27:24.210Z,23.77
2023-05-18T18:29:51.633Z,23.75
2023-05-18T18:32:19.222Z,23.68
2023-05-18T18:34:46.703Z,23.64
2023-05-18T18:37:14.150Z,23.58
2023-05-18T18:39:41.679Z,23.56
2023-05-18T18:42:09.043Z,23.52
2023-05-18T18:44:36.490Z,23.53
2023-05-18T18:47:04.227Z,23.49
2023-05-18T18:49:31.710Z,23.52
2023-05-18T18:51:59.357Z,23.56
2023-05-18T18:54:27.225Z,23.52
2023-05-18T18:56:54.704Z,23.54
2023-05-18T18:59:22.075Z,23.43
2023-05-18T19:01:50.059Z,23.46
2023-05-18T19:04:18.986Z,23.46
2023-05-18T19:06:48.502Z,23.45
2023-05-18T19:09:16.115Z,23.38
2023-05-18T19:11:43.553Z,23.36
2023-05-18T19:14:11.290Z,23.32
2023-05-18T19:16:39.027Z,23.32
2023-05-18T19:19:09.076Z,23.36
2023-05-18T19:21:36.901Z,23.43
2023-05-18T19:24:05.327Z,23.40
2023-05-18T19:26:33.493Z,23.36
2023-05-18T19:29:01.220Z,23.32
2023-05-18T19:31:31.767Z,23.35
2023-05-18T19:34:00.226Z,23.28
2023-05-18T19:36:28.192Z,23.20
2023-05-18T19:38:56.006Z,23.17
2023-05-18T19:41:24.742Z,23.18
2023-05-18T19:43:53.405Z,23.05
2023-05-18T19:46:20.977Z,23.13
2023-05-18T19:48:48.608Z,23.05
2023-05-18T19:51:16.215Z,22.99
2023-05-18T19:53:44.843Z,23.07
2023-05-18T19:56:12.511Z,23.04
2023-05-18T19:58:40.173Z,22.97
2023-05-18T20:01:10.133Z,22.94
2023-05-18T20:03:40.841Z,22.96
2023-05-18T20:06:11.291Z,22.98
2023-05-18T20:08:38.984Z,22.87
2023-05-18T20:11:06.604Z,22.74
2023-05-18T20:13:34.198Z,22.81
2023-05-18T20:16:05.821Z,22.85
2023-05-18T20:18:35.076Z,22.68
2023-05-18T20:21:03.053Z,22.58
2023-05-18T20:23:30.660Z,22.38
2023-05-18T20:25:58.374Z,22.22
2023-05-18T20:28:27.212Z,22.11
2023-05-18T20:30:54.716Z,21.92
2023-05-18T20:33:22.762Z,21.85
2023-05-18T20:35:50.244Z,21.71
2023-05-18T20:38:18.074Z,21.73
2023-05-18T20:40:46.420Z,21.51
2023-05-18T20:43:18.172Z,21.40
2023-05-18T20:45:46.593Z,21.35
2023-05-18T20:48:16.795Z,21.33
2023-05-18T20:50:44.599Z,21.20
2023-05-18T20:53:12.090Z,21.13
2023-05-18T20:55:40.502Z,21.13
2023-05-18T20:58:10.496Z,21.10
2023-05-18T21:00:37.897Z,21.08
2023-05-18T21:03:05.393Z,21.10
2023-05-18T21:05:33.511Z,21.00
2023-05-18T21:08:00.913Z,21.01
2023-05-18T21:10:28.338Z,20.91
2023-05-18T21:12:56.110Z,20.94
2023-05-18T21:15:23.617Z,20.83
2023-05-18T21:17:51.135Z,20.86
2023-05-18T21:20:18.847Z,20.79
2023-05-18T21:22:46.685Z,20.70
2023-05-18T21:25:15.663Z,20.61
2023-05-18T21:27:43.147Z,20.53
2023-05-18T21:30:12.315Z,20.53
2023-05-18T21:32:41.019Z,20.47
2023-05-18T21:35:08.563Z,20.41
2023-05-18T21:37:37.051Z,20.41
2023-05-18T21:40:05.056Z,20.32
2023-05-18T21:42:33.382Z,20.30
2023-05-18T21:45:01.000Z,20.26
2023-05-18T21:47:28.413Z,20.27
2023-05-18T21:49:55.933Z,20.29
2023-05-18T21:52:23.579Z,20.13
2023-05-18T21:54:51.185Z,20.13
2023-05-18T21:57:18.615Z,20.08
2023-05-18T21:59:46.040Z,20.11
2023-05-18T22:02:13.636Z,20.09
2023-05-18T22:04:41.330Z,20.12
2023-05-18T22:07:08.950Z,20.02
2023-05-18T22:09:36.853Z,20.03
2023-05-18T22:12:04.568Z,20.06
2023-05-18T22:14:32.107Z,19.99
2023-05-18T22:16:59.650Z,19.94
2023-05-18T22:19:27.235Z,19.96
2023-05-18T22:21:54.837Z,19.99
2023-05-18T22:24:22.299Z,19.93
2023-05-18T22:26:49.886Z,19.94
2023-05-18T22:29:17.482Z,19.92
2023-05-18T22:31:45.247Z,20.00
2023-05-18T22:34:12.909Z,19.94
2023-05-18T22:36:40.425Z,20.01
2023-05-18T22:39:09.062Z,20.00
2023-05-18T22:41:36.604Z,20.00
2023-05-18T22:44:04.118Z,20.04
2023-05-18T22:46:31.615Z,19.95
2023-05-18T22:48:59.306Z,20.03
2023-05-18T22:51:26.714Z,20.03
2023-05-18T22:53:56.190Z,20.10
2023-05-18T22:56:23.651Z,20.03
2023-05-18T22:58:51.716Z,20.02
2023-05-18T23:01:19.089Z,20.10
2023-05-18T23:03:46.608Z,20.02
2023-05-18T23:06:14.131Z,20.07
2023-05-18T23:08:41.511Z,20.09
2023-05-18T23:11:09.108Z,20.06
2023-05-18T23:13:37.824Z,20.00
2023-05-18T23:16:06.318Z,19.99
2023-05-18T23:18:33.920Z,20.07
2023-05-18T23:21:01.300Z,20.05
2023-05-18T23:23:28.871Z,20.08
2023-05-18T23:25:57.294Z,20.03
2023-05-18T23:28:24.692Z,20.03
2023-05-18T23:30:52.158Z,20.14
2023-05-18T23:33:20.350Z,20.04
2023-05-18T23:35:50.617Z,20.09
2023-05-18T23:38:22.068Z,20.15
2023-05-18T23:40:52.929Z,19.95
2023-05-18T23:43:20.644Z,19.97
2023-05-18T23:45:48.386Z,19.84
2023-05-18T23:48:16.055Z,19.77
2023-05-18T23:50:44.110Z,19.72
2023-05-18T23:53:15.213Z,19.60
2023-05-18T23:55:42.924Z,19.54
2023-05-18T23:58:10.637Z,19.59
